Portada
METAR-TAF:

METAR-TAF

Aeroports :

Santiago de Xile, Xile

latitud: 33-23S, longitud: 070-47W, altitud: 475 m

Observació

L'informe es va fer fa 23 minuts, a les 13:00 UTC
Vent 1 kt amb direcció variable
Temperatura 20°C
Humitat 40%
Pressió 1017 hPa
Visibilitat 10 km o més
sense núvols per sota de 1500 mi sense presència de cumulonimbus.

METAR: SCEL 291300Z VRB01KT CAVOK 20/06 Q1017 NOSIG

Hora: 10:23 (13:23 UTC)

Pronòstic

L'informe es va fer fa 3 hores i 23 minuts, a les 10:00 UTC
Pronòstic vàlid del 29 a les 12 UTC al 30 a les 12 UTC
Vent 4 kt del Sud/Sud-Est
Visibilitat 10 km o més
sense núvols per sota de 1500 mi sense presència de cumulonimbus.
Evolucionant progressivament
l' 29 a les 16 UTC al 29 a les 18 UTC
Vent 12 kt del Sud/Sud-Oest
Evolucionant progressivament
l' 30 a les 02 UTC al 30 a les 04 UTC
Vent 6 kt del Sud/Sud-Est

TAF: SCEL 291000Z 2912/3012 15004KT CAVOK TX31/2919Z TN09/3011Z BECMG 2916/2918 20012KT BECMG 3002/3004 15006KT

Observacions i pronòstics meteorològics de més de 4000 aeroports (METAR i TAF).

Les estacions disponibles són els punts grocs i vermells al mapa.

Posi el ratolí al punt desitjat per veure el nom de l'estació.

Feu clic per veure les observacions i els pronòstics meteorològics.

Per canviar el mapa: feu clic els botons verds amb una creu de color negre per apropar; al botó verd amb un guió per allunyar la imatge; o en les fletxes verdes per a mapes adjacents.


METAR-TAF: